Zim Rio Grande — 9HNV9 — position and weather

sailwx.info

Track history (hours):
 
Tides and Currents Weather Stations Pressure Air Temp Water Temp Dewpoint Dewpoint Depression Visibility Wind Speed Wind Dir Waves Ship Positions

Zim Rio Grande

Last reported at 2014-Nov-28 22:33 UTC. Time now 2014-Nov-28 22:55 UTC.
Position N 38°18' W 027°33'.

Length 260 m; draft 10.9 m.

Type: Ship (hazmat cat A). MMSI: 249253000.

Date/timePositionNaut miles runAvg speedWind from/ knotsBaromVisibWave heightAir tempDewpointWater temp
2014-Nov-28 22:33N 38°18' W 027°33'1514.9
2014-Nov-28 21:33N 38°19' W 027°52'6 6.5
2014-Nov-28 20:33N 38°20' W 027°60'2 1.7
2014-Nov-28 19:33N 38°21' W 028°02'1 1.5
2014-Nov-28 18:33N 38°22' W 028°04'2 1.8
2014-Nov-28 17:33N 38°21' W 028°06'2 1.8
2014-Nov-28 16:33N 38°21' W 028°08'1 1.4
2014-Nov-28 15:33N 38°22' W 028°10'2 2.1
2014-Nov-28 14:33N 38°20' W 028°09'7 6.6
2014-Nov-28 13:33N 38°18' W 028°01'1 1.2
2014-Nov-28 12:33N 38°19' W 028°01'1 1.3
2014-Nov-28 11:33N 38°19' W 028°03'1 1.2
2014-Nov-28 10:33N 38°20' W 028°04'1 0.9
2014-Nov-28 09:33N 38°20' W 028°06'1 1.1
2014-Nov-28 08:34N 38°21' W 028°07'1 1.3
2014-Nov-28 07:33N 38°21' W 028°08'4 4.1
2014-Nov-28 06:33N 38°20' W 028°03'1 1.2
2014-Nov-28 05:33N 38°20' W 028°05'2 1.7
2014-Nov-28 04:33N 38°21' W 028°07'1 1.2
2014-Nov-28 03:33N 38°21' W 028°08'0 0.3
2014-Nov-28 02:33N 38°21' W 028°08'0 0.4
2014-Nov-28 01:33N 38°21' W 028°09'0 0.4
2014-Nov-28 00:33N 38°21' W 028°09'1 0.8
2014-Nov-27 23:30N 38°22' W 028°09'3 2.8
2014-Nov-27 22:33N 38°21' W 028°06'1 0.7
2014-Nov-27 21:33N 38°21' W 028°07'1 0.9
2014-Nov-27 20:33N 38°21' W 028°05'4 3.7
2014-Nov-27 19:33N 38°21' W 028°10'3 2.5
2014-Nov-27 18:33N 38°22' W 028°07'6 6.4
2014-Nov-27 17:34N 38°23' W 027°59'5 5.0
2014-Nov-27 16:33N 38°21' W 028°05'2 1.6
2014-Nov-27 15:33N 38°22' W 028°07'0 0.5
2014-Nov-27 14:34N 38°21' W 028°08'4 3.8
2014-Nov-27 13:33N 38°20' W 028°12'3 2.6
2014-Nov-27 12:33N 38°21' W 028°09'1 0.8
2014-Nov-27 11:33N 38°20' W 028°08'4 4.0
2014-Nov-27 10:33N 38°20' W 028°03'5 4.9
2014-Nov-27 09:33N 38°22' W 027°57'5 4.8
2014-Nov-27 08:33N 38°23' W 027°51'3 3.1
2014-Nov-27 07:33N 38°25' W 027°48'2 2.3
2014-Nov-27 06:33N 38°26' W 027°51'2 2.4
2014-Nov-27 05:34N 38°26' W 027°54'1 0.6
2014-Nov-27 04:33N 38°26' W 027°53'6 6.4
2014-Nov-27 03:33N 38°24' W 027°45'3 2.8
2014-Nov-27 02:34N 38°25' W 027°48'2 2.2
2014-Nov-27 01:33N 38°25' W 027°51'2 1.8
2014-Nov-27 00:34N 38°25' W 027°54'0 0.2
2014-Nov-26 23:33N 38°25' W 027°54'8 8.1
2014-Nov-26 22:33N 38°19' W 027°47'1 1.1
2014-Nov-26 21:33N 38°17' W 027°47'2 1.8
2014-Nov-26 20:33N 38°19' W 027°49'5 5.3
2014-Nov-26 19:33N 38°23' W 027°54'1312.5
2014-Nov-26 18:33N 38°31' W 028°06'1212.5
2014-Nov-26 17:33N 38°38' W 028°19'1312.5
2014-Nov-26 16:33N 38°45' W 028°32'1212.1
2014-Nov-26 15:33N 38°52' W 028°44'1212.1
2014-Nov-26 14:33N 39°01' W 028°56'1212.2
2014-Nov-26 13:34N 39°09' W 029°07'1615.5
2014-Nov-26 12:33N 39°14' W 029°26'1716.6
2014-Nov-26 11:33N 39°13' W 029°48'1716.7
2014-Nov-26 10:34N 39°13' W 030°09'1917.0
2014-Nov-26 09:27N 39°14' W 030°33'1517.2
2014-Nov-26 08:33N 39°15' W 030°53'2017.3
2014-Nov-26 07:25N 39°15' W 031°19'  
2014-Nov-19 13:05N 32°06' W 081°01'4 8.1
2014-Nov-19 12:33N 32°05' W 081°05'3 3.2
2014-Nov-19 11:32N 32°07' W 081°08'0 0.0
2014-Nov-19 10:21N 32°07' W 081°08'0 0.0
2014-Nov-19 08:30N 32°07' W 081°08'0 0.0
2014-Nov-19 07:32N 32°07' W 081°08'0 0.0
2014-Nov-19 06:33N 32°07' W 081°08'0 0.0
2014-Nov-19 05:32N 32°07' W 081°08'0 0.0
2014-Nov-19 04:32N 32°07' W 081°08'0 0.0
2014-Nov-19 03:33N 32°07' W 081°08'0 0.0
2014-Nov-19 02:29N 32°07' W 081°08'0 0.0
2014-Nov-19 01:33N 32°07' W 081°08'0 0.0
2014-Nov-19 00:32N 32°07' W 081°08'0 0.0
2014-Nov-18 23:32N 32°07' W 081°08'  
Track history (hours):
 
Tides and Currents Weather Stations Pressure Air Temp Water Temp Dewpoint Dewpoint Depression Visibility Wind Speed Wind Dir Waves Ship Positions

Zim Rio Grande

Last reported at 2014-Nov-28 22:33 UTC. Time now 2014-Nov-28 22:55 UTC.
Position N 38°18' W 027°33'.

Length 260 m; draft 10.9 m.

Type: Ship (hazmat cat A). MMSI: 249253000.

Date/timePositionNaut miles runAvg speedWind from/ knotsBaromVisibWave heightAir tempDewpointWater temp
2014-Nov-28 22:33N 38°18' W 027°33'1514.9
2014-Nov-28 21:33N 38°19' W 027°52'6 6.5
2014-Nov-28 20:33N 38°20' W 027°60'2 1.7
2014-Nov-28 19:33N 38°21' W 028°02'1 1.5
2014-Nov-28 18:33N 38°22' W 028°04'2 1.8
2014-Nov-28 17:33N 38°21' W 028°06'2 1.8
2014-Nov-28 16:33N 38°21' W 028°08'1 1.4
2014-Nov-28 15:33N 38°22' W 028°10'2 2.1
2014-Nov-28 14:33N 38°20' W 028°09'7 6.6
2014-Nov-28 13:33N 38°18' W 028°01'1 1.2
2014-Nov-28 12:33N 38°19' W 028°01'1 1.3
2014-Nov-28 11:33N 38°19' W 028°03'1 1.2
2014-Nov-28 10:33N 38°20' W 028°04'1 0.9
2014-Nov-28 09:33N 38°20' W 028°06'1 1.1
2014-Nov-28 08:34N 38°21' W 028°07'1 1.3
2014-Nov-28 07:33N 38°21' W 028°08'4 4.1
2014-Nov-28 06:33N 38°20' W 028°03'1 1.2
2014-Nov-28 05:33N 38°20' W 028°05'2 1.7
2014-Nov-28 04:33N 38°21' W 028°07'1 1.2
2014-Nov-28 03:33N 38°21' W 028°08'0 0.3
2014-Nov-28 02:33N 38°21' W 028°08'0 0.4
2014-Nov-28 01:33N 38°21' W 028°09'0 0.4
2014-Nov-28 00:33N 38°21' W 028°09'1 0.8
2014-Nov-27 23:30N 38°22' W 028°09'3 2.8
2014-Nov-27 22:33N 38°21' W 028°06'1 0.7
2014-Nov-27 21:33N 38°21' W 028°07'1 0.9
2014-Nov-27 20:33N 38°21' W 028°05'4 3.7
2014-Nov-27 19:33N 38°21' W 028°10'3 2.5
2014-Nov-27 18:33N 38°22' W 028°07'6 6.4
2014-Nov-27 17:34N 38°23' W 027°59'5 5.0
2014-Nov-27 16:33N 38°21' W 028°05'2 1.6
2014-Nov-27 15:33N 38°22' W 028°07'0 0.5
2014-Nov-27 14:34N 38°21' W 028°08'4 3.8
2014-Nov-27 13:33N 38°20' W 028°12'3 2.6
2014-Nov-27 12:33N 38°21' W 028°09'1 0.8
2014-Nov-27 11:33N 38°20' W 028°08'4 4.0
2014-Nov-27 10:33N 38°20' W 028°03'5 4.9
2014-Nov-27 09:33N 38°22' W 027°57'5 4.8
2014-Nov-27 08:33N 38°23' W 027°51'3 3.1
2014-Nov-27 07:33N 38°25' W 027°48'2 2.3
2014-Nov-27 06:33N 38°26' W 027°51'2 2.4
2014-Nov-27 05:34N 38°26' W 027°54'1 0.6
2014-Nov-27 04:33N 38°26' W 027°53'6 6.4
2014-Nov-27 03:33N 38°24' W 027°45'3 2.8
2014-Nov-27 02:34N 38°25' W 027°48'2 2.2
2014-Nov-27 01:33N 38°25' W 027°51'2 1.8
2014-Nov-27 00:34N 38°25' W 027°54'0 0.2
2014-Nov-26 23:33N 38°25' W 027°54'8 8.1
2014-Nov-26 22:33N 38°19' W 027°47'1 1.1
2014-Nov-26 21:33N 38°17' W 027°47'2 1.8
2014-Nov-26 20:33N 38°19' W 027°49'5 5.3
2014-Nov-26 19:33N 38°23' W 027°54'1312.5
2014-Nov-26 18:33N 38°31' W 028°06'1212.5
2014-Nov-26 17:33N 38°38' W 028°19'1312.5
2014-Nov-26 16:33N 38°45' W 028°32'1212.1
2014-Nov-26 15:33N 38°52' W 028°44'1212.1
2014-Nov-26 14:33N 39°01' W 028°56'1212.2
2014-Nov-26 13:34N 39°09' W 029°07'1615.5
2014-Nov-26 12:33N 39°14' W 029°26'1716.6
2014-Nov-26 11:33N 39°13' W 029°48'1716.7
2014-Nov-26 10:34N 39°13' W 030°09'1917.0
2014-Nov-26 09:27N 39°14' W 030°33'1517.2
2014-Nov-26 08:33N 39°15' W 030°53'2017.3
2014-Nov-26 07:25N 39°15' W 031°19'  
2014-Nov-19 13:05N 32°06' W 081°01'4 8.1
2014-Nov-19 12:33N 32°05' W 081°05'3 3.2
2014-Nov-19 11:32N 32°07' W 081°08'0 0.0
2014-Nov-19 10:21N 32°07' W 081°08'0 0.0
2014-Nov-19 08:30N 32°07' W 081°08'0 0.0
2014-Nov-19 07:32N 32°07' W 081°08'0 0.0
2014-Nov-19 06:33N 32°07' W 081°08'0 0.0
2014-Nov-19 05:32N 32°07' W 081°08'0 0.0
2014-Nov-19 04:32N 32°07' W 081°08'0 0.0
2014-Nov-19 03:33N 32°07' W 081°08'0 0.0
2014-Nov-19 02:29N 32°07' W 081°08'0 0.0
2014-Nov-19 01:33N 32°07' W 081°08'0 0.0
2014-Nov-19 00:32N 32°07' W 081°08'0 0.0
2014-Nov-18 23:32N 32°07' W 081°08'  

Dump ship's entire track history